createdAt,value
2018-05-10T00:00:06.456Z,19.46
2018-05-10T00:02:34.734Z,19.29
2018-05-10T00:05:06.286Z,19.45
2018-05-10T00:07:34.569Z,19.29
2018-05-10T00:10:05.840Z,19.40
2018-05-10T00:12:34.127Z,19.50
2018-05-10T00:15:08.688Z,19.49
2018-05-10T00:17:37.160Z,19.36
2018-05-10T00:20:06.703Z,19.31
2018-05-10T00:22:35.249Z,19.25
2018-05-10T00:25:07.367Z,19.16
2018-05-10T00:27:35.660Z,19.03
2018-05-10T00:30:06.461Z,19.06
2018-05-10T00:32:34.758Z,19.00
2018-05-10T00:35:06.266Z,18.85
2018-05-10T00:37:34.561Z,18.91
2018-05-10T00:40:05.854Z,18.73
2018-05-10T00:42:34.143Z,18.62
2018-05-10T00:45:06.425Z,18.55
2018-05-10T00:47:34.708Z,18.63
2018-05-10T00:50:06.007Z,18.62
2018-05-10T00:52:34.304Z,18.67
2018-05-10T00:55:05.737Z,18.52
2018-05-10T00:57:34.015Z,18.55
2018-05-10T01:00:08.785Z,18.55
2018-05-10T01:02:37.082Z,18.53
2018-05-10T01:05:06.866Z,18.53
2018-05-10T01:07:35.157Z,18.47
2018-05-10T01:10:07.289Z,18.34
2018-05-10T01:12:35.675Z,18.38
2018-05-10T01:15:07.844Z,18.27
2018-05-10T01:17:36.131Z,18.31
2018-05-10T01:20:07.691Z,17.90
2018-05-10T01:22:36.108Z,17.88
2018-05-10T01:25:06.024Z,18.06
2018-05-10T01:27:34.450Z,18.02
2018-05-10T01:30:05.482Z,18.01
2018-05-10T01:32:34.095Z,18.16
2018-05-10T01:35:17.188Z,18.14
2018-05-10T01:37:45.879Z,18.17
2018-05-10T01:40:14.149Z,18.15
2018-05-10T01:42:42.915Z,18.16
2018-05-10T01:45:11.151Z,18.08
2018-05-10T01:47:39.604Z,18.09
2018-05-10T01:50:07.875Z,18.15
2018-05-10T01:52:36.154Z,18.14
2018-05-10T01:55:06.477Z,18.25
2018-05-10T01:57:35.167Z,18.20
2018-05-10T02:00:05.512Z,18.05
2018-05-10T02:02:33.767Z,18.07
2018-05-10T02:05:08.075Z,18.12
2018-05-10T02:07:36.804Z,18.03
2018-05-10T02:10:05.794Z,17.98
2018-05-10T02:12:34.080Z,17.85
2018-05-10T02:15:05.394Z,17.99
2018-05-10T02:17:33.860Z,17.84
2018-05-10T02:20:06.798Z,17.81
2018-05-10T02:22:35.241Z,17.72
2018-05-10T02:25:07.317Z,17.79
2018-05-10T02:27:35.628Z,17.74
2018-05-10T02:30:05.962Z,17.75
2018-05-10T02:32:34.383Z,17.58
2018-05-10T02:35:06.276Z,17.56
2018-05-10T02:37:34.712Z,17.49
2018-05-10T02:40:07.391Z,17.47
2018-05-10T02:42:35.991Z,17.44
2018-05-10T02:45:08.276Z,17.51
2018-05-10T02:47:36.564Z,17.41
2018-05-10T02:50:06.368Z,17.25
2018-05-10T02:52:34.687Z,17.26
2018-05-10T02:55:05.573Z,17.31
2018-05-10T02:57:33.875Z,17.24
2018-05-10T03:00:05.222Z,17.14
2018-05-10T03:02:33.488Z,17.23
2018-05-10T03:05:06.943Z,17.13
2018-05-10T03:07:35.598Z,16.99
2018-05-10T03:10:07.380Z,16.90
2018-05-10T03:12:35.649Z,16.76
2018-05-10T03:15:05.571Z,16.81
2018-05-10T03:17:33.966Z,16.73
2018-05-10T03:20:05.650Z,16.79
2018-05-10T03:22:33.936Z,16.80
2018-05-10T03:25:09.442Z,16.85
2018-05-10T03:27:37.725Z,16.81
2018-05-10T03:30:06.297Z,16.60
2018-05-10T03:32:34.570Z,16.76
2018-05-10T03:35:05.795Z,16.65
2018-05-10T03:37:34.676Z,16.77
2018-05-10T03:40:05.891Z,16.64
2018-05-10T03:42:35.056Z,16.51
2018-05-10T03:45:07.427Z,16.37
2018-05-10T03:47:36.067Z,16.50
2018-05-10T03:50:06.280Z,16.44
2018-05-10T03:52:34.567Z,16.32
2018-05-10T03:55:05.751Z,16.53
2018-05-10T03:57:34.043Z,16.29
2018-05-10T04:00:09.075Z,16.43
2018-05-10T04:05:48.088Z,16.50
2018-05-10T04:08:28.041Z,16.37
2018-05-10T04:11:07.987Z,16.53
2018-05-10T04:13:36.266Z,16.43
2018-05-10T04:16:04.555Z,16.54
2018-05-10T04:18:33.031Z,16.65
2018-05-10T04:21:01.435Z,16.23
2018-05-10T04:23:30.079Z,16.18
2018-05-10T04:25:58.583Z,16.39
2018-05-10T04:28:26.962Z,16.10
2018-05-10T04:30:55.259Z,16.15
2018-05-10T04:33:23.536Z,16.24
2018-05-10T04:35:51.871Z,16.04
2018-05-10T04:38:20.112Z,16.16
2018-05-10T04:40:48.391Z,16.20
2018-05-10T04:43:16.689Z,16.31
2018-05-10T04:45:45.166Z,16.22
2018-05-10T04:48:13.462Z,16.22
2018-05-10T04:50:41.740Z,16.24
2018-05-10T04:53:10.843Z,16.41
2018-05-10T04:55:39.115Z,16.17
2018-05-10T04:58:07.460Z,16.30
2018-05-10T05:00:35.731Z,16.31
2018-05-10T05:03:04.026Z,16.28
2018-05-10T05:05:32.783Z,16.27
2018-05-10T05:08:01.211Z,15.96
2018-05-10T05:10:29.488Z,15.91
2018-05-10T05:12:57.791Z,16.09
2018-05-10T05:15:26.263Z,16.10
2018-05-10T05:17:54.560Z,16.14
2018-05-10T05:20:23.103Z,15.94
2018-05-10T05:22:51.399Z,16.15
2018-05-10T05:25:19.697Z,15.97
2018-05-10T05:27:47.990Z,16.04
2018-05-10T05:30:16.394Z,16.08
2018-05-10T05:32:44.731Z,16.09
2018-05-10T05:35:13.166Z,16.24
2018-05-10T05:37:41.464Z,16.12
2018-05-10T05:40:09.751Z,16.18
2018-05-10T05:42:38.070Z,16.10
2018-05-10T05:45:06.935Z,16.06
2018-05-10T05:47:35.364Z,15.67
2018-05-10T05:50:08.223Z,15.64
2018-05-10T05:52:36.628Z,15.59
2018-05-10T05:55:05.796Z,15.71
2018-05-10T05:57:34.074Z,15.89
2018-05-10T06:00:09.219Z,15.78
2018-05-10T06:02:37.620Z,15.61
2018-05-10T06:05:05.891Z,15.76
2018-05-10T06:07:34.182Z,15.88
2018-05-10T06:10:05.853Z,15.98
2018-05-10T06:12:34.163Z,16.01
2018-05-10T06:15:05.779Z,15.91
2018-05-10T06:17:34.083Z,16.03
2018-05-10T06:20:05.760Z,16.05
2018-05-10T06:22:34.367Z,16.14
2018-05-10T06:25:08.409Z,15.94
2018-05-10T06:27:36.870Z,15.90
2018-05-10T06:30:06.083Z,16.07
2018-05-10T06:32:34.370Z,16.15
2018-05-10T06:35:05.787Z,16.37
2018-05-10T06:37:34.088Z,16.22
2018-05-10T06:40:09.175Z,15.92
2018-05-10T06:42:37.470Z,15.96
2018-05-10T06:45:05.823Z,16.30
2018-05-10T06:47:34.120Z,16.19
2018-05-10T06:50:05.623Z,16.45
2018-05-10T06:52:33.927Z,16.41
2018-05-10T06:55:05.853Z,16.50
2018-05-10T06:57:34.143Z,16.26
2018-05-10T07:00:07.451Z,16.51
2018-05-10T07:02:35.745Z,16.76
2018-05-10T07:05:07.571Z,16.82
2018-05-10T07:07:35.883Z,16.62
2018-05-10T07:10:07.095Z,16.76
2018-05-10T07:12:35.500Z,16.59
2018-05-10T07:15:08.000Z,16.68
2018-05-10T07:17:37.138Z,16.98
2018-05-10T07:20:05.879Z,16.89
2018-05-10T07:22:34.155Z,16.72
2018-05-10T07:25:05.734Z,16.64
2018-05-10T07:27:33.995Z,16.83
2018-05-10T07:30:05.432Z,16.98
2018-05-10T07:32:33.711Z,16.72
2018-05-10T07:35:05.343Z,16.69
2018-05-10T07:37:33.659Z,17.37
2018-05-10T07:40:08.279Z,17.40
2018-05-10T07:42:36.551Z,17.48
2018-05-10T07:45:06.807Z,18.04
2018-05-10T07:47:35.113Z,18.05
2018-05-10T07:50:06.561Z,17.87
2018-05-10T07:52:34.999Z,17.57
2018-05-10T07:55:06.923Z,17.72
2018-05-10T07:57:35.221Z,17.15
2018-05-10T08:00:07.482Z,17.45
2018-05-10T08:02:35.774Z,17.70
2018-05-10T08:05:07.632Z,17.82
2018-05-10T08:07:36.126Z,17.71
2018-05-10T08:10:06.109Z,17.50
2018-05-10T08:12:34.564Z,17.85
2018-05-10T08:15:05.954Z,17.92
2018-05-10T08:17:34.248Z,17.21
2018-05-10T08:20:05.734Z,17.37
2018-05-10T08:22:34.017Z,17.54
2018-05-10T08:25:08.911Z,17.50
2018-05-10T08:27:47.464Z,17.50
2018-05-10T08:30:15.804Z,17.76
2018-05-10T08:32:44.039Z,17.79
2018-05-10T08:35:12.330Z,17.59
2018-05-10T08:37:40.828Z,17.71
2018-05-10T08:40:10.115Z,17.56
2018-05-10T08:42:39.276Z,17.49
2018-05-10T08:45:07.617Z,17.49
2018-05-10T08:47:36.070Z,17.56
2018-05-10T08:50:05.949Z,17.59
2018-05-10T08:52:34.347Z,17.49
2018-05-10T08:55:09.230Z,17.68
2018-05-10T08:57:37.511Z,17.62
2018-05-10T09:00:07.074Z,17.59
2018-05-10T09:02:35.352Z,17.48
2018-05-10T09:05:07.503Z,17.55
2018-05-10T09:07:35.789Z,17.55
2018-05-10T09:10:05.947Z,17.55
2018-05-10T09:12:34.708Z,17.34
2018-05-10T09:15:06.073Z,17.20
2018-05-10T09:17:35.276Z,17.59
2018-05-10T09:20:07.117Z,17.49
2018-05-10T09:22:35.399Z,17.47
2018-05-10T09:25:06.103Z,17.89
2018-05-10T09:27:34.396Z,18.04
2018-05-10T09:30:06.476Z,18.05
2018-05-10T09:32:34.755Z,17.90
2018-05-10T09:35:06.266Z,17.69
2018-05-10T09:37:34.545Z,17.51
2018-05-10T09:40:07.635Z,17.57
2018-05-10T09:42:35.911Z,17.23
2018-05-10T09:45:08.386Z,17.40
2018-05-10T09:47:36.659Z,17.37
2018-05-10T09:50:08.592Z,17.23
2018-05-10T09:52:36.946Z,16.81
2018-05-10T09:55:06.136Z,17.08
2018-05-10T09:57:34.409Z,17.19
2018-05-10T10:00:09.295Z,17.00
2018-05-10T10:02:37.650Z,16.96
2018-05-10T10:05:06.098Z,17.10
2018-05-10T10:07:34.376Z,16.82
2018-05-10T10:10:05.911Z,16.86
2018-05-10T10:12:34.191Z,17.00
2018-05-10T10:15:05.799Z,16.95
2018-05-10T10:17:34.111Z,16.75
2018-05-10T10:20:05.755Z,16.93
2018-05-10T10:22:34.131Z,16.78
2018-05-10T10:25:09.019Z,16.88
2018-05-10T10:27:37.460Z,16.80
2018-05-10T10:30:06.780Z,16.81
2018-05-10T10:32:35.064Z,16.88
2018-05-10T10:35:07.695Z,17.05
2018-05-10T10:37:35.982Z,16.84
2018-05-10T10:40:07.419Z,16.35
2018-05-10T10:42:35.642Z,16.14
2018-05-10T10:45:07.055Z,16.18
2018-05-10T10:47:35.344Z,16.15
2018-05-10T10:50:07.328Z,15.82
2018-05-10T10:52:35.674Z,15.82
2018-05-10T10:55:07.535Z,16.06
2018-05-10T10:57:35.851Z,16.31
2018-05-10T11:00:07.941Z,16.45
2018-05-10T11:02:36.246Z,16.31
2018-05-10T11:05:06.198Z,16.20
2018-05-10T11:07:34.471Z,16.11
2018-05-10T11:10:06.079Z,16.61
2018-05-10T11:12:34.361Z,16.60
2018-05-10T11:15:05.944Z,17.01
2018-05-10T11:17:34.236Z,17.33
2018-05-10T11:20:09.221Z,17.51
2018-05-10T11:22:37.595Z,17.49
2018-05-10T11:25:06.210Z,17.48
2018-05-10T11:27:34.821Z,18.01
2018-05-10T11:30:06.331Z,17.78
2018-05-10T11:32:34.617Z,17.58
2018-05-10T11:35:06.216Z,17.85
2018-05-10T11:37:34.642Z,18.05
2018-05-10T11:40:06.806Z,17.79
2018-05-10T11:42:35.095Z,17.55
2018-05-10T11:45:06.182Z,17.80
2018-05-10T11:47:34.488Z,17.59
2018-05-10T11:50:06.501Z,17.12
2018-05-10T11:52:34.802Z,16.86
2018-05-10T11:55:06.176Z,16.98
2018-05-10T11:57:34.483Z,16.64
2018-05-10T12:00:06.371Z,16.27
2018-05-10T12:02:34.686Z,16.52
2018-05-10T12:05:06.161Z,16.60
2018-05-10T12:07:34.452Z,16.28
2018-05-10T12:10:06.396Z,16.11
2018-05-10T12:12:34.696Z,16.32
2018-05-10T12:15:06.052Z,16.67
2018-05-10T12:17:34.603Z,16.81
2018-05-10T12:20:06.445Z,16.62
2018-05-10T12:22:34.751Z,16.46
2018-05-10T12:25:06.233Z,16.67
2018-05-10T12:27:34.535Z,16.89
2018-05-10T12:30:06.247Z,16.81
2018-05-10T12:32:34.559Z,16.88
2018-05-10T12:35:06.010Z,16.60
2018-05-10T12:37:34.330Z,16.49
2018-05-10T12:40:05.815Z,16.36
2018-05-10T12:42:34.128Z,16.34
2018-05-10T12:45:05.642Z,15.97
2018-05-10T12:47:33.935Z,16.09
2018-05-10T12:50:08.624Z,16.08
2018-05-10T12:52:36.946Z,16.03
2018-05-10T12:55:06.247Z,15.98
2018-05-10T12:57:34.555Z,15.73
2018-05-10T13:00:06.121Z,15.68
2018-05-10T13:02:34.428Z,15.95
2018-05-10T13:05:05.960Z,15.95
2018-05-10T13:07:34.280Z,15.86
2018-05-10T13:10:06.577Z,15.92
2018-05-10T13:12:35.028Z,16.12
2018-05-10T13:15:06.764Z,16.14
2018-05-10T13:17:35.106Z,16.37
2018-05-10T13:20:07.115Z,16.41
2018-05-10T13:22:35.405Z,16.39
2018-05-10T13:25:07.619Z,16.66
2018-05-10T13:27:35.923Z,16.78
2018-05-10T13:30:07.891Z,16.79
2018-05-10T13:32:36.200Z,16.77
2018-05-10T13:35:06.340Z,16.78
2018-05-10T13:37:34.619Z,17.10
2018-05-10T13:40:06.586Z,16.88
2018-05-10T13:42:35.204Z,17.02
2018-05-10T13:45:06.276Z,17.10
2018-05-10T13:47:34.743Z,17.01
2018-05-10T13:50:06.162Z,17.13
2018-05-10T13:52:34.451Z,17.50
2018-05-10T13:55:08.558Z,17.48
2018-05-10T13:57:36.839Z,17.21
2018-05-10T14:00:06.988Z,17.19
2018-05-10T14:02:35.270Z,17.34
2018-05-10T14:05:06.628Z,17.32
2018-05-10T14:07:34.915Z,17.37
2018-05-10T14:10:07.041Z,17.06
2018-05-10T14:12:35.447Z,16.99
2018-05-10T14:15:07.182Z,17.45
2018-05-10T14:17:35.708Z,17.66
2018-05-10T14:20:07.576Z,17.40
2018-05-10T14:22:35.843Z,17.30
2018-05-10T14:25:08.042Z,17.22
2018-05-10T14:27:36.289Z,17.48
2018-05-10T14:30:07.635Z,17.17
2018-05-10T14:32:35.918Z,17.22
2018-05-10T14:35:08.282Z,17.37
2018-05-10T14:37:36.559Z,17.21
2018-05-10T14:40:06.423Z,17.43
2018-05-10T14:42:34.691Z,17.28
2018-05-10T14:45:06.310Z,17.41
2018-05-10T14:47:34.587Z,17.53
2018-05-10T14:50:05.987Z,17.55
2018-05-10T14:52:34.286Z,17.53
2018-05-10T14:55:09.202Z,17.36
2018-05-10T14:57:37.468Z,17.31
2018-05-10T15:00:06.492Z,17.70
2018-05-10T15:02:34.785Z,17.65
2018-05-10T15:05:09.971Z,17.85
2018-05-10T15:07:38.246Z,18.01
2018-05-10T15:10:06.534Z,18.36
2018-05-10T15:12:34.812Z,18.13
2018-05-10T15:15:08.936Z,18.13
2018-05-10T15:17:38.070Z,18.27
2018-05-10T15:20:06.444Z,18.61
2018-05-10T15:22:34.811Z,18.81
2018-05-10T15:25:09.710Z,18.66
2018-05-10T15:27:38.000Z,18.81
2018-05-10T15:30:06.550Z,18.90
2018-05-10T15:32:34.831Z,18.92
2018-05-10T15:35:08.944Z,18.62
2018-05-10T15:37:37.241Z,18.67
2018-05-10T15:40:06.612Z,18.65
2018-05-10T15:42:34.910Z,18.51
2018-05-10T15:45:06.516Z,18.73
2018-05-10T15:47:34.991Z,18.75
2018-05-10T15:50:09.065Z,18.47
2018-05-10T15:52:37.411Z,18.17
2018-05-10T15:55:06.836Z,18.78
2018-05-10T15:57:35.120Z,18.66
2018-05-10T16:00:07.044Z,18.82
2018-05-10T16:02:35.360Z,18.89
2018-05-10T16:05:06.049Z,18.62
2018-05-10T16:07:34.344Z,18.33
2018-05-10T16:10:06.086Z,18.36
2018-05-10T16:12:34.360Z,18.17
2018-05-10T16:15:06.061Z,18.40
2018-05-10T16:17:34.337Z,18.27
2018-05-10T16:20:05.826Z,18.35
2018-05-10T16:22:34.435Z,18.38
2018-05-10T16:25:05.805Z,18.60
2018-05-10T16:27:34.091Z,18.56
2018-05-10T16:30:05.793Z,18.46
2018-05-10T16:32:34.089Z,18.25
2018-05-10T16:35:05.826Z,18.27
2018-05-10T16:37:34.122Z,18.50
2018-05-10T16:40:05.484Z,18.27
2018-05-10T16:42:33.806Z,18.51
2018-05-10T16:45:05.364Z,18.63
2018-05-10T16:47:33.670Z,18.43
2018-05-10T16:50:05.988Z,18.47
2018-05-10T16:52:34.183Z,18.26
2018-05-10T16:55:05.640Z,18.35
2018-05-10T16:57:33.932Z,18.02
2018-05-10T17:00:05.265Z,18.27
2018-05-10T17:02:33.557Z,18.19
2018-05-10T17:05:08.110Z,18.11
2018-05-10T17:07:36.396Z,18.30
2018-05-10T17:10:07.059Z,18.13
2018-05-10T17:12:35.368Z,18.00
2018-05-10T17:15:07.077Z,17.99
2018-05-10T17:17:35.351Z,18.18
2018-05-10T17:20:06.737Z,17.98
2018-05-10T17:22:35.095Z,18.06
2018-05-10T17:25:07.004Z,18.02
2018-05-10T17:27:35.431Z,18.00
2018-05-10T17:30:07.589Z,17.94
2018-05-10T17:32:35.983Z,17.89
2018-05-10T17:35:06.283Z,17.90
2018-05-10T17:37:34.575Z,17.87
2018-05-10T17:40:05.864Z,17.90
2018-05-10T17:42:34.196Z,17.86
2018-05-10T17:45:06.142Z,17.90
2018-05-10T17:47:34.429Z,17.84
2018-05-10T17:50:05.960Z,17.79
2018-05-10T17:52:34.263Z,17.80
2018-05-10T17:55:05.892Z,17.84
2018-05-10T17:57:34.127Z,17.87
2018-05-10T18:00:06.191Z,17.97
2018-05-10T18:02:34.499Z,17.77
2018-05-10T18:05:08.454Z,17.66
2018-05-10T18:07:36.729Z,17.87
2018-05-10T18:10:06.012Z,17.85
2018-05-10T18:12:34.296Z,17.73
2018-05-10T18:15:06.200Z,17.89
2018-05-10T18:17:34.526Z,17.84
2018-05-10T18:20:07.271Z,17.83
2018-05-10T18:22:35.636Z,17.55
2018-05-10T18:25:06.983Z,17.55
2018-05-10T18:27:35.305Z,17.57
2018-05-10T18:30:07.132Z,17.64
2018-05-10T18:32:35.803Z,17.68
2018-05-10T18:35:07.719Z,17.55
2018-05-10T18:37:36.035Z,17.57
2018-05-10T18:40:07.049Z,17.56
2018-05-10T18:42:35.715Z,17.53
2018-05-10T18:45:07.719Z,17.55
2018-05-10T18:47:36.029Z,17.59
2018-05-10T18:50:07.531Z,17.47
2018-05-10T18:52:35.852Z,17.40
2018-05-10T18:55:07.332Z,17.33
2018-05-10T18:57:35.632Z,17.19
2018-05-10T19:00:07.667Z,17.04
2018-05-10T19:02:35.958Z,17.12
2018-05-10T19:05:07.144Z,16.99
2018-05-10T19:07:35.622Z,17.19
2018-05-10T19:10:08.246Z,17.07
2018-05-10T19:12:36.527Z,16.94
2018-05-10T19:15:08.123Z,17.08
2018-05-10T19:17:36.402Z,17.13
2018-05-10T19:20:06.308Z,17.08
2018-05-10T19:22:34.763Z,16.95
2018-05-10T19:25:06.951Z,16.91
2018-05-10T19:27:35.247Z,16.99
2018-05-10T19:30:07.380Z,16.81
2018-05-10T19:32:35.680Z,16.85
2018-05-10T19:35:06.876Z,16.93
2018-05-10T19:37:35.184Z,16.95
2018-05-10T19:40:06.512Z,16.90
2018-05-10T19:42:34.787Z,17.04
2018-05-10T19:45:06.801Z,16.88
2018-05-10T19:47:35.113Z,16.86
2018-05-10T19:50:06.003Z,16.92
2018-05-10T19:52:34.306Z,16.81
2018-05-10T19:55:06.216Z,16.90
2018-05-10T19:57:34.503Z,16.83
2018-05-10T20:00:05.835Z,16.75
2018-05-10T20:02:34.118Z,16.70
2018-05-10T20:05:05.423Z,16.55
2018-05-10T20:07:33.695Z,16.59
2018-05-10T20:10:08.468Z,16.61
2018-05-10T20:12:36.747Z,16.36
2018-05-10T20:15:06.773Z,16.49
2018-05-10T20:17:35.036Z,16.46
2018-05-10T20:20:07.065Z,16.45
2018-05-10T20:22:35.346Z,16.44
2018-05-10T20:25:07.439Z,16.33
2018-05-10T20:27:35.713Z,16.51
2018-05-10T20:30:07.854Z,16.45
2018-05-10T20:32:36.126Z,16.37
2018-05-10T20:35:05.983Z,16.23
2018-05-10T20:37:34.457Z,16.16
2018-05-10T20:40:05.852Z,16.19
2018-05-10T20:42:34.223Z,16.07
2018-05-10T20:45:05.792Z,16.16
2018-05-10T20:47:34.319Z,16.18
2018-05-10T20:50:05.726Z,16.15
2018-05-10T20:52:34.064Z,16.21
2018-05-10T20:55:05.917Z,16.23
2018-05-10T20:57:34.118Z,16.15
2018-05-10T21:00:06.092Z,16.16
2018-05-10T21:02:34.367Z,15.93
2018-05-10T21:05:07.555Z,15.95
2018-05-10T21:07:35.815Z,16.01
2018-05-10T21:10:07.018Z,15.86
2018-05-10T21:12:41.809Z,15.99
2018-05-10T21:15:10.104Z,15.95
2018-05-10T21:17:38.371Z,15.89
2018-05-10T21:20:06.746Z,15.93
2018-05-10T21:22:34.941Z,15.86
2018-05-10T21:25:06.209Z,15.76
2018-05-10T21:27:34.493Z,15.75
2018-05-10T21:30:06.390Z,15.72
2018-05-10T21:32:34.654Z,15.69
2018-05-10T21:35:06.266Z,15.59
2018-05-10T21:37:34.542Z,15.52
2018-05-10T21:40:06.419Z,15.51
2018-05-10T21:42:34.679Z,15.53
2018-05-10T21:45:08.825Z,15.43
2018-05-10T21:47:37.112Z,15.33
2018-05-10T21:50:06.769Z,15.29
2018-05-10T21:52:35.035Z,15.23
2018-05-10T21:55:06.850Z,15.20
2018-05-10T21:57:35.199Z,15.20
2018-05-10T22:00:07.032Z,15.23
2018-05-10T22:02:35.309Z,15.05
2018-05-10T22:20:06.502Z,14.79
2018-05-10T22:22:34.777Z,14.83
2018-05-10T22:25:07.323Z,14.83
2018-05-10T22:27:35.668Z,14.69
2018-05-10T22:30:07.619Z,14.59
2018-05-10T22:32:35.840Z,14.64
2018-05-10T22:35:07.391Z,14.49
2018-05-10T22:37:35.667Z,14.52
2018-05-10T22:40:07.463Z,14.50
2018-05-10T22:42:35.912Z,14.42
2018-05-10T22:45:07.518Z,14.30
2018-05-10T22:47:35.808Z,14.37
2018-05-10T22:50:07.303Z,14.22
2018-05-10T22:52:35.584Z,14.17
2018-05-10T22:55:07.121Z,14.16
2018-05-10T22:57:35.411Z,14.20
2018-05-10T23:00:07.212Z,14.04
2018-05-10T23:02:35.531Z,14.06
2018-05-10T23:05:07.696Z,14.04
2018-05-10T23:07:35.995Z,13.91
2018-05-10T23:10:07.243Z,13.91
2018-05-10T23:12:35.512Z,13.78
2018-05-10T23:15:07.123Z,13.82
2018-05-10T23:17:35.407Z,13.78
2018-05-10T23:20:07.200Z,13.74
2018-05-10T23:22:35.494Z,13.70
2018-05-10T23:25:07.411Z,13.67
2018-05-10T23:27:35.684Z,13.63
2018-05-10T23:30:07.767Z,13.54
2018-05-10T23:32:36.072Z,13.50
2018-05-10T23:35:06.015Z,13.46
2018-05-10T23:37:34.304Z,13.31
2018-05-10T23:40:08.325Z,13.31
2018-05-10T23:42:36.623Z,13.31
2018-05-10T23:45:06.523Z,13.19
2018-05-10T23:47:35.195Z,13.24
2018-05-10T23:50:06.033Z,13.20
2018-05-10T23:52:34.519Z,13.17
2018-05-10T23:55:06.119Z,13.24
2018-05-10T23:57:34.677Z,13.15
